sensor_id;sensor_type;location;lat;lon;timestamp;temperature;humidity
72919;SHT30;61063;55.700;26.994;2022-11-23T00:04:36;-2.8;83
72919;SHT30;61063;55.700;26.994;2022-11-23T00:09:28;-2.7;82.8
72919;SHT30;61063;55.700;26.994;2022-11-23T00:14:18;-2.6;82.3
72919;SHT30;61063;55.700;26.994;2022-11-23T00:19:18;-2.5;82
72919;SHT30;61063;55.700;26.994;2022-11-23T00:24:50;-2.6;82
72919;SHT30;61063;55.700;26.994;2022-11-23T00:29:38;-2.8;82.3
72919;SHT30;61063;55.700;26.994;2022-11-23T00:34:50;-2.8;82.5
72919;SHT30;61063;55.700;26.994;2022-11-23T00:39:20;-2.9;82.6
72919;SHT30;61063;55.700;26.994;2022-11-23T00:44:52;-3;83.1
72919;SHT30;61063;55.700;26.994;2022-11-23T00:49:28;-2.9;83
72919;SHT30;61063;55.700;26.994;2022-11-23T00:54:38;-3;83.1
72919;SHT30;61063;55.700;26.994;2022-11-23T00:59:42;-2.9;83
72919;SHT30;61063;55.700;26.994;2022-11-23T01:04:20;-2.9;82.9
72919;SHT30;61063;55.700;26.994;2022-11-23T01:09:18;-2.9;83.2
72919;SHT30;61063;55.700;26.994;2022-11-23T01:14:42;-2.9;82.9
72919;SHT30;61063;55.700;26.994;2022-11-23T01:19:40;-2.9;83
72919;SHT30;61063;55.700;26.994;2022-11-23T01:24:19;-3;83.2
72919;SHT30;61063;55.700;26.994;2022-11-23T01:29:30;-2.9;83.1
72919;SHT30;61063;55.700;26.994;2022-11-23T01:34:24;-2.8;83
72919;SHT30;61063;55.700;26.994;2022-11-23T01:39:44;-2.8;82.7
72919;SHT30;61063;55.700;26.994;2022-11-23T01:44:32;-2.8;82.7
72919;SHT30;61063;55.700;26.994;2022-11-23T01:49:52;-2.8;82.6
72919;SHT30;61063;55.700;26.994;2022-11-23T01:54:21;-2.9;82.8
72919;SHT30;61063;55.700;26.994;2022-11-23T01:59:20;-3;83.3
72919;SHT30;61063;55.700;26.994;2022-11-23T02:04:45;-3.1;83.5
72919;SHT30;61063;55.700;26.994;2022-11-23T02:09:44;-3;83.6
72919;SHT30;61063;55.700;26.994;2022-11-23T02:14:56;-2.9;83.4
72919;SHT30;61063;55.700;26.994;2022-11-23T02:19:56;-2.9;83.4
72919;SHT30;61063;55.700;26.994;2022-11-23T02:24:32;-2.8;83.3
72919;SHT30;61063;55.700;26.994;2022-11-23T02:29:46;-3;83.4
72919;SHT30;61063;55.700;26.994;2022-11-23T02:34:44;-3;83.7
72919;SHT30;61063;55.700;26.994;2022-11-23T02:39:35;-3.1;83.8
72919;SHT30;61063;55.700;26.994;2022-11-23T02:44:15;-3.1;84
72919;SHT30;61063;55.700;26.994;2022-11-23T02:49:22;-3;83.7
72919;SHT30;61063;55.700;26.994;2022-11-23T02:54:46;-3;83.5
72919;SHT30;61063;55.700;26.994;2022-11-23T02:59:30;-3;83.5
72919;SHT30;61063;55.700;26.994;2022-11-23T03:04:56;-3;83.5
72919;SHT30;61063;55.700;26.994;2022-11-23T03:09:56;-2.9;83.4
72919;SHT30;61063;55.700;26.994;2022-11-23T03:14:22;-2.8;83.1
72919;SHT30;61063;55.700;26.994;2022-11-23T03:19:32;-2.6;82.7
72919;SHT30;61063;55.700;26.994;2022-11-23T03:24:44;-2.7;82.6
72919;SHT30;61063;55.700;26.994;2022-11-23T03:29:52;-2.7;82.8
72919;SHT30;61063;55.700;26.994;2022-11-23T03:34:52;-2.7;82.6
72919;SHT30;61063;55.700;26.994;2022-11-23T03:39:20;-2.8;83
72919;SHT30;61063;55.700;26.994;2022-11-23T03:44:42;-2.9;83.1
72919;SHT30;61063;55.700;26.994;2022-11-23T03:49:40;-2.9;83.3
72919;SHT30;61063;55.700;26.994;2022-11-23T03:54:32;-2.9;83.1
72919;SHT30;61063;55.700;26.994;2022-11-23T03:59:22;-2.7;82.9
72919;SHT30;61063;55.700;26.994;2022-11-23T04:04:54;-2.5;82.3
72919;SHT30;61063;55.700;26.994;2022-11-23T04:09:54;-2.5;82.1
72919;SHT30;61063;55.700;26.994;2022-11-23T04:14:54;-2.6;82.1
72919;SHT30;61063;55.700;26.994;2022-11-23T04:19:54;-2.8;82.5
72919;SHT30;61063;55.700;26.994;2022-11-23T04:24:56;-2.8;82.8
72919;SHT30;61063;55.700;26.994;2022-11-23T04:29:42;-2.9;82.9
72919;SHT30;61063;55.700;26.994;2022-11-23T04:34:22;-3;83.2
72919;SHT30;61063;55.700;26.994;2022-11-23T04:39:42;-3;83.4
72919;SHT30;61063;55.700;26.994;2022-11-23T04:44:54;-3;83.2
72919;SHT30;61063;55.700;26.994;2022-11-23T04:49:22;-3.1;83.4
72919;SHT30;61063;55.700;26.994;2022-11-23T04:54:22;-3;83.3
72919;SHT30;61063;55.700;26.994;2022-11-23T04:59:44;-2.9;83
72919;SHT30;61063;55.700;26.994;2022-11-23T05:04:32;-2.9;83
72919;SHT30;61063;55.700;26.994;2022-11-23T05:09:32;-2.8;82.8
72919;SHT30;61063;55.700;26.994;2022-11-23T05:14:24;-2.8;82.5
72919;SHT30;61063;55.700;26.994;2022-11-23T05:19:22;-3;82.8
72919;SHT30;61063;55.700;26.994;2022-11-23T05:24:56;-2.9;82.8
72919;SHT30;61063;55.700;26.994;2022-11-23T05:29:30;-2.8;82.6
72919;SHT30;61063;55.700;26.994;2022-11-23T05:34:56;-2.8;82.4
72919;SHT30;61063;55.700;26.994;2022-11-23T05:39:24;-2.9;82.4
72919;SHT30;61063;55.700;26.994;2022-11-23T05:44:56;-2.9;82.8
72919;SHT30;61063;55.700;26.994;2022-11-23T05:49:34;-2.8;82.4
72919;SHT30;61063;55.700;26.994;2022-11-23T05:54:42;-2.9;82.5
72919;SHT30;61063;55.700;26.994;2022-11-23T05:59:56;-3;82.7
72919;SHT30;61063;55.700;26.994;2022-11-23T06:04:20;-3.2;83
72919;SHT30;61063;55.700;26.994;2022-11-23T06:09:10;-3.3;83.3
72919;SHT30;61063;55.700;26.994;2022-11-23T06:14:56;-3.3;83.4
72919;SHT30;61063;55.700;26.994;2022-11-23T06:19:42;-3.3;83.4
72919;SHT30;61063;55.700;26.994;2022-11-23T06:24:58;-3.2;83.5
72919;SHT30;61063;55.700;26.994;2022-11-23T06:29:44;-3.1;83.2
72919;SHT30;61063;55.700;26.994;2022-11-23T06:34:22;-3.1;82.9
72919;SHT30;61063;55.700;26.994;2022-11-23T06:39:58;-3.1;83
72919;SHT30;61063;55.700;26.994;2022-11-23T06:44:32;-3;82.9
72919;SHT30;61063;55.700;26.994;2022-11-23T06:49:56;-2.8;82.4
72919;SHT30;61063;55.700;26.994;2022-11-23T06:54:32;-2.6;81.6
72919;SHT30;61063;55.700;26.994;2022-11-23T06:59:58;-2.7;81.3
72919;SHT30;61063;55.700;26.994;2022-11-23T07:04:24;-2.7;81.5
72919;SHT30;61063;55.700;26.994;2022-11-23T07:09:42;-2.5;81
72919;SHT30;61063;55.700;26.994;2022-11-23T07:14:46;-2.4;80.6
72919;SHT30;61063;55.700;26.994;2022-11-23T07:19:54;-2.4;80.3
72919;SHT30;61063;55.700;26.994;2022-11-23T07:24:22;-2.4;80.1
72919;SHT30;61063;55.700;26.994;2022-11-23T07:29:56;-2.3;80
72919;SHT30;61063;55.700;26.994;2022-11-23T07:34:40;-2.2;79.7
72919;SHT30;61063;55.700;26.994;2022-11-23T07:39:56;-2.2;79.6
72919;SHT30;61063;55.700;26.994;2022-11-23T07:44:46;-2.2;79.5
72919;SHT30;61063;55.700;26.994;2022-11-23T07:49:20;-2;79.2
72919;SHT30;61063;55.700;26.994;2022-11-23T07:54:52;-1.9;78.5
72919;SHT30;61063;55.700;26.994;2022-11-23T07:59:30;-1.9;78.4
72919;SHT30;61063;55.700;26.994;2022-11-23T08:04:56;-1.9;78.1
72919;SHT30;61063;55.700;26.994;2022-11-23T08:09:36;-1.9;78.1
72919;SHT30;61063;55.700;26.994;2022-11-23T08:14:26;-1.9;78.2
72919;SHT30;61063;55.700;26.994;2022-11-23T08:19:36;-1.8;77.8
72919;SHT30;61063;55.700;26.994;2022-11-23T08:24:46;-1.8;77.6
72919;SHT30;61063;55.700;26.994;2022-11-23T08:29:48;-1.8;77.8
72919;SHT30;61063;55.700;26.994;2022-11-23T08:34:56;-1.7;77.6
72919;SHT30;61063;55.700;26.994;2022-11-23T08:39:26;-1.6;77.4
72919;SHT30;61063;55.700;26.994;2022-11-23T08:44:54;-1.4;76.9
72919;SHT30;61063;55.700;26.994;2022-11-23T08:49:40;-1.1;76.3
72919;SHT30;61063;55.700;26.994;2022-11-23T08:54:20;-0.9;75.7
72919;SHT30;61063;55.700;26.994;2022-11-23T08:59:44;-0.7;75.1
72919;SHT30;61063;55.700;26.994;2022-11-23T09:04:34;-0.8;74.5
72919;SHT30;61063;55.700;26.994;2022-11-23T09:09:56;-0.7;74.3
72919;SHT30;61063;55.700;26.994;2022-11-23T09:14:30;-0.9;74.4
72919;SHT30;61063;55.700;26.994;2022-11-23T09:19:56;-1;74.9
72919;SHT30;61063;55.700;26.994;2022-11-23T09:24:34;-1;74.8
72919;SHT30;61063;55.700;26.994;2022-11-23T09:29:20;-1.2;75.1
72919;SHT30;61063;55.700;26.994;2022-11-23T09:34:54;-1.2;75.3
72919;SHT30;61063;55.700;26.994;2022-11-23T09:39:44;-1.3;75.7
72919;SHT30;61063;55.700;26.994;2022-11-23T09:44:43;-1;75.4
72919;SHT30;61063;55.700;26.994;2022-11-23T09:49:59;-0.8;74.7
72919;SHT30;61063;55.700;26.994;2022-11-23T09:54:25;-0.8;74.5
72919;SHT30;61063;55.700;26.994;2022-11-23T09:59:57;-0.6;74.4
72919;SHT30;61063;55.700;26.994;2022-11-23T10:04:42;-0.5;73.9
72919;SHT30;61063;55.700;26.994;2022-11-23T10:09:58;-0.3;73.3
72919;SHT30;61063;55.700;26.994;2022-11-23T10:14:50;-0.4;73.2
72919;SHT30;61063;55.700;26.994;2022-11-23T10:20:00;-0.3;73.2
72919;SHT30;61063;55.700;26.994;2022-11-23T10:24:54;-0.3;73.2
72919;SHT30;61063;55.700;26.994;2022-11-23T10:29:32;-0.3;73.1
72919;SHT30;61063;55.700;26.994;2022-11-23T10:35:03;-0.4;72.8
72919;SHT30;61063;55.700;26.994;2022-11-23T10:39:23;-0.5;73
72919;SHT30;61063;55.700;26.994;2022-11-23T10:44:56;-0.4;72.6
72919;SHT30;61063;55.700;26.994;2022-11-23T10:49:33;-0.4;72.6
72919;SHT30;61063;55.700;26.994;2022-11-23T10:54:46;-0.2;72.5
72919;SHT30;61063;55.700;26.994;2022-11-23T10:59:38;0;72
72919;SHT30;61063;55.700;26.994;2022-11-23T11:04:42;-0.1;71.7
72919;SHT30;61063;55.700;26.994;2022-11-23T11:09:32;-0.2;72.2
72919;SHT30;61063;55.700;26.994;2022-11-23T11:15:00;-0.2;72.4
72919;SHT30;61063;55.700;26.994;2022-11-23T11:19:58;-0.2;72.4
72919;SHT30;61063;55.700;26.994;2022-11-23T11:24:34;-0.4;72.9
72919;SHT30;61063;55.700;26.994;2022-11-23T11:29:45;-0.5;73.3
72919;SHT30;61063;55.700;26.994;2022-11-23T11:34:23;-0.6;73.2
72919;SHT30;61063;55.700;26.994;2022-11-23T11:39:57;-0.6;73.2
72919;SHT30;61063;55.700;26.994;2022-11-23T11:44:31;-0.6;73.3
72919;SHT30;61063;55.700;26.994;2022-11-23T11:49:59;-0.7;73.3
72919;SHT30;61063;55.700;26.994;2022-11-23T11:54:49;-0.8;73.8
72919;SHT30;61063;55.700;26.994;2022-11-23T11:59:56;-0.5;73.5
72919;SHT30;61063;55.700;26.994;2022-11-23T12:04:34;-0.5;73
72919;SHT30;61063;55.700;26.994;2022-11-23T12:09:45;-0.4;73.1
72919;SHT30;61063;55.700;26.994;2022-11-23T12:14:22;-0.5;73
72919;SHT30;61063;55.700;26.994;2022-11-23T12:19:49;-0.7;73.5
72919;SHT30;61063;55.700;26.994;2022-11-23T12:24:59;-0.8;73.9
72919;SHT30;61063;55.700;26.994;2022-11-23T12:30:00;-0.8;74.3
72919;SHT30;61063;55.700;26.994;2022-11-23T12:35:08;-0.7;74.5
72919;SHT30;61063;55.700;26.994;2022-11-23T12:39:52;-0.6;74
72919;SHT30;61063;55.700;26.994;2022-11-23T12:44:51;-0.5;73.8
72919;SHT30;61063;55.700;26.994;2022-11-23T12:49:27;-0.7;74.3
72919;SHT30;61063;55.700;26.994;2022-11-23T12:55:02;-0.9;74.8
72919;SHT30;61063;55.700;26.994;2022-11-23T12:59:34;-0.9;74.9
72919;SHT30;61063;55.700;26.994;2022-11-23T13:05:04;-0.8;74.8
72919;SHT30;61063;55.700;26.994;2022-11-23T13:09:23;-0.7;75
72919;SHT30;61063;55.700;26.994;2022-11-23T13:14:23;-0.7;75
72919;SHT30;61063;55.700;26.994;2022-11-23T13:19:34;-0.8;74.7
72919;SHT30;61063;55.700;26.994;2022-11-23T13:25:13;-0.9;75
72919;SHT30;61063;55.700;26.994;2022-11-23T13:29:53;-1.1;75.6
72919;SHT30;61063;55.700;26.994;2022-11-23T13:34:56;-1.2;76
72919;SHT30;61063;55.700;26.994;2022-11-23T13:45:30;-1.1;76.1
72919;SHT30;61063;55.700;26.994;2022-11-23T13:50:06;-1;76.4
72919;SHT30;61063;55.700;26.994;2022-11-23T13:54:51;-1.1;77
72919;SHT30;61063;55.700;26.994;2022-11-23T13:59:48;-1.2;77.4
72919;SHT30;61063;55.700;26.994;2022-11-23T14:04:26;-1.1;77.8
72919;SHT30;61063;55.700;26.994;2022-11-23T14:10:01;-1;77.7
72919;SHT30;61063;55.700;26.994;2022-11-23T14:15:02;-1;77.7
72919;SHT30;61063;55.700;26.994;2022-11-23T14:24:55;-1.3;77.9
72919;SHT30;61063;55.700;26.994;2022-11-23T14:29:27;-1.4;78
72919;SHT30;61063;55.700;26.994;2022-11-23T14:34:38;-1.5;77.8
72919;SHT30;61063;55.700;26.994;2022-11-23T14:39:54;-1.6;78.1
72919;SHT30;61063;55.700;26.994;2022-11-23T14:44:32;-1.6;78
72919;SHT30;61063;55.700;26.994;2022-11-23T14:49:47;-1.6;78.1
72919;SHT30;61063;55.700;26.994;2022-11-23T14:54:57;-1.5;78.1
72919;SHT30;61063;55.700;26.994;2022-11-23T14:59:57;-1.5;78
72919;SHT30;61063;55.700;26.994;2022-11-23T15:04:51;-1.4;77.9
72919;SHT30;61063;55.700;26.994;2022-11-23T15:09:47;-1.6;78
72919;SHT30;61063;55.700;26.994;2022-11-23T15:14:26;-1.6;78.3
72919;SHT30;61063;55.700;26.994;2022-11-23T15:19:27;-1.5;78.3
72919;SHT30;61063;55.700;26.994;2022-11-23T15:24:34;-1.5;78.4
72919;SHT30;61063;55.700;26.994;2022-11-23T15:29:49;-1.6;78.7
72919;SHT30;61063;55.700;26.994;2022-11-23T15:34:57;-1.5;78.6
72919;SHT30;61063;55.700;26.994;2022-11-23T15:39:56;-1.6;78.6
72919;SHT30;61063;55.700;26.994;2022-11-23T15:44:23;-1.6;78.6
72919;SHT30;61063;55.700;26.994;2022-11-23T15:49:50;-1.6;78.8
72919;SHT30;61063;55.700;26.994;2022-11-23T15:54:23;-1.7;78.8
72919;SHT30;61063;55.700;26.994;2022-11-23T16:00:01;-1.7;79
72919;SHT30;61063;55.700;26.994;2022-11-23T16:05:02;-1.7;79.1
72919;SHT30;61063;55.700;26.994;2022-11-23T16:10:05;-1.7;79.1
72919;SHT30;61063;55.700;26.994;2022-11-23T16:14:46;-1.7;79.1
72919;SHT30;61063;55.700;26.994;2022-11-23T16:19:51;-1.6;79
72919;SHT30;61063;55.700;26.994;2022-11-23T16:24:46;-1.6;79.1
72919;SHT30;61063;55.700;26.994;2022-11-23T16:29:36;-1.8;79.6
72919;SHT30;61063;55.700;26.994;2022-11-23T16:34:26;-1.9;79.9
72919;SHT30;61063;55.700;26.994;2022-11-23T16:40:00;-1.9;80.2
72919;SHT30;61063;55.700;26.994;2022-11-23T16:44:46;-2;80.4
72919;SHT30;61063;55.700;26.994;2022-11-23T16:49:30;-2;80.6
72919;SHT30;61063;55.700;26.994;2022-11-23T16:54:58;-1.9;80.7
72919;SHT30;61063;55.700;26.994;2022-11-23T16:59:22;-2;80.7
72919;SHT30;61063;55.700;26.994;2022-11-23T17:04:36;-2.1;80.8
72919;SHT30;61063;55.700;26.994;2022-11-23T17:09:22;-2.1;80.9
72919;SHT30;61063;55.700;26.994;2022-11-23T17:14:58;-2;80.8
72919;SHT30;61063;55.700;26.994;2022-11-23T17:19:58;-2.1;80.8
72919;SHT30;61063;55.700;26.994;2022-11-23T17:24:26;-2.1;80.8
72919;SHT30;61063;55.700;26.994;2022-11-23T17:29:46;-2.1;81
72919;SHT30;61063;55.700;26.994;2022-11-23T17:34:50;-2.1;81.3
72919;SHT30;61063;55.700;26.994;2022-11-23T17:39:44;-2.1;81.3
72919;SHT30;61063;55.700;26.994;2022-11-23T17:44:34;-2.1;81.4
72919;SHT30;61063;55.700;26.994;2022-11-23T17:49:34;-2.1;81.5
72919;SHT30;61063;55.700;26.994;2022-11-23T17:55:00;-2.1;81.7
72919;SHT30;61063;55.700;26.994;2022-11-23T17:59:44;-2.1;81.8
72919;SHT30;61063;55.700;26.994;2022-11-23T18:04:45;-2;81.7
72919;SHT30;61063;55.700;26.994;2022-11-23T18:09:56;-2;81.6
72919;SHT30;61063;55.700;26.994;2022-11-23T18:14:24;-2;81.5
72919;SHT30;61063;55.700;26.994;2022-11-23T18:19:44;-2.1;81.8
72919;SHT30;61063;55.700;26.994;2022-11-23T18:24:34;-2.1;82.1
72919;SHT30;61063;55.700;26.994;2022-11-23T18:29:56;-2;82
72919;SHT30;61063;55.700;26.994;2022-11-23T18:34:56;-2;82.2
72919;SHT30;61063;55.700;26.994;2022-11-23T18:39:58;-1.9;82.3
72919;SHT30;61063;55.700;26.994;2022-11-23T18:44:44;-1.9;82
72919;SHT30;61063;55.700;26.994;2022-11-23T18:49:54;-1.9;82.3
72919;SHT30;61063;55.700;26.994;2022-11-23T18:54:44;-1.8;82.3
72919;SHT30;61063;55.700;26.994;2022-11-23T18:59:36;-1.7;82
72919;SHT30;61063;55.700;26.994;2022-11-23T19:04:56;-1.7;81.8
72919;SHT30;61063;55.700;26.994;2022-11-23T19:09:32;-1.6;81.5
72919;SHT30;61063;55.700;26.994;2022-11-23T19:14:42;-1.7;81.2
72919;SHT30;61063;55.700;26.994;2022-11-23T19:19:30;-1.7;81.2
72919;SHT30;61063;55.700;26.994;2022-11-23T19:24:56;-1.7;81.1
72919;SHT30;61063;55.700;26.994;2022-11-23T19:29:58;-1.7;80.9
72919;SHT30;61063;55.700;26.994;2022-11-23T19:34:48;-1.6;80.4
72919;SHT30;61063;55.700;26.994;2022-11-23T19:39:56;-1.6;80.5
72919;SHT30;61063;55.700;26.994;2022-11-23T19:44:58;-1.6;80.5
72919;SHT30;61063;55.700;26.994;2022-11-23T19:49:58;-1.5;80.5
72919;SHT30;61063;55.700;26.994;2022-11-23T19:54:22;-1.4;80.3
72919;SHT30;61063;55.700;26.994;2022-11-23T19:59:56;-1.4;79.8
72919;SHT30;61063;55.700;26.994;2022-11-23T20:04:56;-1.4;79.7
72919;SHT30;61063;55.700;26.994;2022-11-23T20:09:42;-1.4;79.6
72919;SHT30;61063;55.700;26.994;2022-11-23T20:14:32;-1.4;79.6
72919;SHT30;61063;55.700;26.994;2022-11-23T20:19:56;-1.5;79.4
72919;SHT30;61063;55.700;26.994;2022-11-23T20:24:56;-1.5;79.6
72919;SHT30;61063;55.700;26.994;2022-11-23T20:29:56;-1.6;80
72919;SHT30;61063;55.700;26.994;2022-11-23T20:34:20;-1.7;80.3
72919;SHT30;61063;55.700;26.994;2022-11-23T20:39:56;-1.6;80.4
72919;SHT30;61063;55.700;26.994;2022-11-23T20:44:58;-1.6;80.2
72919;SHT30;61063;55.700;26.994;2022-11-23T20:49:58;-1.6;80.2
72919;SHT30;61063;55.700;26.994;2022-11-23T20:54:22;-1.5;80.2
72919;SHT30;61063;55.700;26.994;2022-11-23T20:59:42;-1.5;79.9
72919;SHT30;61063;55.700;26.994;2022-11-23T21:04:46;-1.6;80.2
72919;SHT30;61063;55.700;26.994;2022-11-23T21:09:56;-1.7;80.5
72919;SHT30;61063;55.700;26.994;2022-11-23T21:14:23;-1.8;81
72919;SHT30;61063;55.700;26.994;2022-11-23T21:19:44;-1.6;81
72919;SHT30;61063;55.700;26.994;2022-11-23T21:24:42;-1.6;80.5
72919;SHT30;61063;55.700;26.994;2022-11-23T21:29:31;-1.7;80.5
72919;SHT30;61063;55.700;26.994;2022-11-23T21:34:23;-1.8;80.8
72919;SHT30;61063;55.700;26.994;2022-11-23T21:39:52;-1.7;80.8
72919;SHT30;61063;55.700;26.994;2022-11-23T21:44:54;-1.7;80.3
72919;SHT30;61063;55.700;26.994;2022-11-23T21:49:32;-1.7;80.3
72919;SHT30;61063;55.700;26.994;2022-11-23T21:54:52;-1.6;80.2
72919;SHT30;61063;55.700;26.994;2022-11-23T21:59:18;-1.7;80.3
72919;SHT30;61063;55.700;26.994;2022-11-23T22:04:48;-1.8;80.4
72919;SHT30;61063;55.700;26.994;2022-11-23T22:09:18;-1.8;80.6
72919;SHT30;61063;55.700;26.994;2022-11-23T22:14:42;-1.9;80.8
72919;SHT30;61063;55.700;26.994;2022-11-23T22:19:54;-1.9;81
72919;SHT30;61063;55.700;26.994;2022-11-23T22:24:18;-1.9;81.4
72919;SHT30;61063;55.700;26.994;2022-11-23T22:29:21;-1.9;81.5
72919;SHT30;61063;55.700;26.994;2022-11-23T22:34:44;-1.8;81.5
72919;SHT30;61063;55.700;26.994;2022-11-23T22:39:40;-1.9;81.6
72919;SHT30;61063;55.700;26.994;2022-11-23T22:44:20;-1.8;81.5
72919;SHT30;61063;55.700;26.994;2022-11-23T22:49:20;-1.8;81.7
72919;SHT30;61063;55.700;26.994;2022-11-23T22:54:18;-1.8;81.7
72919;SHT30;61063;55.700;26.994;2022-11-23T22:59:54;-1.8;81.8
72919;SHT30;61063;55.700;26.994;2022-11-23T23:04:20;-1.8;82.1
72919;SHT30;61063;55.700;26.994;2022-11-23T23:09:54;-1.8;82
72919;SHT30;61063;55.700;26.994;2022-11-23T23:14:54;-1.9;82.1
72919;SHT30;61063;55.700;26.994;2022-11-23T23:19:21;-1.8;82.5
72919;SHT30;61063;55.700;26.994;2022-11-23T23:24:40;-1.7;82.3
72919;SHT30;61063;55.700;26.994;2022-11-23T23:29:38;-1.6;81.9
72919;SHT30;61063;55.700;26.994;2022-11-23T23:34:51;-1.6;82.2
72919;SHT30;61063;55.700;26.994;2022-11-23T23:39:20;-1.5;82
72919;SHT30;61063;55.700;26.994;2022-11-23T23:44:12;-1.4;81.8
72919;SHT30;61063;55.700;26.994;2022-11-23T23:49:44;-1.5;81.6
72919;SHT30;61063;55.700;26.994;2022-11-23T23:54:40;-1.6;81.8
72919;SHT30;61063;55.700;26.994;2022-11-23T23:59:46;-1.6;81.8
